Time;durP1;ratioP1;P1;durP2;ratioP2;P2;SDS_P1;SDS_P2;PMS_P1;PMS_P2;Temp;Humidity;BMP_temperature;BMP_pressure;BME280_temperature;BME280_humidity;BME280_pressure;Samples;Min_cycle;Max_cycle;Signal;HPM_P1;HPM_P2
2022/01/08 00:02:06;;;;;;;13.00;5.43;;;11.20;99.90;;;;;;6278354;22;20026;-64
2022/01/08 00:04:33;;;;;;;12.40;4.53;;;11.10;99.90;;;;;;6278210;22;20090;-64
2022/01/08 00:07:00;;;;;;;6.72;4.57;;;11.10;99.90;;;;;;6251190;22;20003;-64
2022/01/08 00:09:26;;;;;;;10.57;4.47;;;11.10;99.90;;;;;;6251698;22;20022;-64
2022/01/08 00:11:53;;;;;;;9.88;4.97;;;11.00;99.90;;;;;;6278103;22;20004;-64
2022/01/08 00:14:21;;;;;;;12.38;5.53;;;11.00;99.90;;;;;;6278234;22;20020;-64
2022/01/08 00:16:49;;;;;;;15.88;6.03;;;11.00;99.90;;;;;;6278188;22;19996;-64
2022/01/08 00:19:15;;;;;;;13.98;6.13;;;11.00;99.90;;;;;;6251223;22;20008;-65
2022/01/08 00:21:42;;;;;;;13.48;5.28;;;11.00;99.90;;;;;;6278576;22;19999;-65
2022/01/08 00:24:12;;;;;;;14.07;5.60;;;11.00;99.90;;;;;;6278299;22;20000;-65
2022/01/08 00:26:39;;;;;;;12.93;6.18;;;11.00;99.90;;;;;;6277593;22;20057;-65
2022/01/08 00:29:06;;;;;;;10.70;5.72;;;11.00;99.90;;;;;;6278104;22;20028;-65
2022/01/08 00:31:32;;;;;;;16.38;5.72;;;11.10;99.90;;;;;;6251014;22;20008;-65
2022/01/08 00:33:59;;;;;;;9.35;5.32;;;11.10;99.90;;;;;;6277987;22;20016;-65
2022/01/08 00:36:26;;;;;;;9.13;4.90;;;11.00;99.90;;;;;;6279007;22;20006;-65
2022/01/08 00:38:52;;;;;;;10.73;4.97;;;11.00;99.90;;;;;;6278033;22;20079;-65
2022/01/08 00:41:19;;;;;;;14.10;5.35;;;11.00;99.90;;;;;;6278419;22;20007;-65
2022/01/08 00:43:46;;;;;;;9.88;5.55;;;11.00;99.90;;;;;;6278049;22;20003;-65
2022/01/08 00:46:13;;;;;;;13.15;5.00;;;11.10;99.90;;;;;;6277838;22;20095;-65
2022/01/08 00:48:39;;;;;;;13.98;5.03;;;11.00;99.90;;;;;;6278181;22;20008;-65
2022/01/08 00:51:09;;;;;;;8.48;4.65;;;11.00;99.90;;;;;;6278311;22;20011;-65
2022/01/08 00:53:36;;;;;;;12.95;5.57;;;11.00;99.90;;;;;;6277897;22;20019;-65
2022/01/08 00:56:06;;;;;;;11.32;4.75;;;11.00;99.90;;;;;;6277799;22;20000;-65
2022/01/08 00:58:32;;;;;;;9.75;4.20;;;10.90;99.90;;;;;;6277840;22;20019;-65
2022/01/08 01:00:59;;;;;;;14.38;4.60;;;10.90;99.90;;;;;;6277818;22;20476;-65
2022/01/08 01:03:26;;;;;;;11.43;4.32;;;10.90;99.90;;;;;;6277797;22;20034;-65
2022/01/08 01:05:52;;;;;;;10.80;4.57;;;10.80;99.90;;;;;;6277628;22;20082;-65
2022/01/08 01:08:19;;;;;;;7.78;4.15;;;10.80;99.90;;;;;;6277826;22;20366;-65
2022/01/08 01:10:45;;;;;;;8.73;3.65;;;10.90;99.90;;;;;;6277773;22;20325;-65
2022/01/08 01:13:12;;;;;;;7.93;4.43;;;10.90;99.90;;;;;;6277595;22;20023;-65
2022/01/08 01:15:39;;;;;;;12.75;4.60;;;11.00;99.90;;;;;;6277641;22;20003;-65
2022/01/08 01:18:21;;;;;;;10.52;4.53;;;11.10;99.90;;;;;;6277994;22;20008;-65
2022/01/08 01:20:53;;;;;;;10.48;5.38;;;11.10;99.90;;;;;;6277625;22;20003;-65
2022/01/08 01:23:28;;;;;;;13.63;4.93;;;11.10;99.90;;;;;;6277528;22;20004;-65
2022/01/08 01:25:59;;;;;;;11.57;4.57;;;11.10;99.90;;;;;;6277652;22;20008;-65
2022/01/08 01:28:56;;;;;;;13.90;4.72;;;11.10;99.90;;;;;;6277555;22;20068;-65
2022/01/08 01:47:56;;;;;;;6.80;2.80;;;10.90;99.90;;;;;;6255089;22;20401;-65
2022/01/08 01:50:26;;;;;;;8.52;2.28;;;10.90;99.90;;;;;;6277703;22;20004;-65
2022/01/08 01:52:52;;;;;;;14.65;2.42;;;11.00;99.90;;;;;;6277508;22;20468;-65
2022/01/08 01:55:19;;;;;;;10.68;3.13;;;11.00;99.90;;;;;;6277123;22;20007;-65
2022/01/08 01:57:47;;;;;;;7.18;1.50;;;11.10;99.90;;;;;;6277226;22;20003;-65
2022/01/08 02:00:14;;;;;;;9.43;1.75;;;11.20;99.90;;;;;;6277086;22;20004;-65
2022/01/08 02:02:41;;;;;;;11.45;2.25;;;11.30;99.90;;;;;;6277062;22;20019;-65
2022/01/08 02:05:08;;;;;;;4.90;1.88;;;11.30;99.90;;;;;;6277281;22;20418;-65
2022/01/08 02:07:35;;;;;;;6.63;2.35;;;11.30;99.90;;;;;;6277170;22;20004;-65
2022/01/08 02:10:03;;;;;;;11.88;1.50;;;11.30;99.90;;;;;;6250347;22;20007;-65
2022/01/08 02:12:32;;;;;;;4.35;1.73;;;11.40;99.90;;;;;;6277121;22;20011;-65
2022/01/08 02:14:59;;;;;;;10.73;2.55;;;11.40;99.90;;;;;;6277155;22;20004;-65
2022/01/08 02:17:26;;;;;;;2.88;1.85;;;11.40;99.90;;;;;;6277138;22;20456;-65
2022/01/08 02:19:54;;;;;;;6.75;1.50;;;11.40;99.90;;;;;;6277392;22;20007;-65
2022/01/08 02:22:21;;;;;;;9.55;1.80;;;11.40;99.90;;;;;;6277312;22;20079;-65
2022/01/08 02:24:48;;;;;;;16.13;2.10;;;11.40;99.90;;;;;;6277072;22;20049;-65
2022/01/08 02:27:15;;;;;;;5.93;1.30;;;11.30;99.90;;;;;;6276931;22;19999;-66
2022/01/08 02:29:43;;;;;;;7.53;1.60;;;11.40;99.90;;;;;;6249979;22;20065;-65
2022/01/08 02:32:17;;;;;;;10.35;1.33;;;11.40;99.90;;;;;;6277195;22;20046;-65
2022/01/08 02:35:02;;;;;;;1.95;1.05;;;11.40;99.90;;;;;;6278449;22;20011;-65
2022/01/08 02:37:41;;;;;;;10.70;1.38;;;11.30;99.90;;;;;;6277384;22;19999;-65
2022/01/08 02:40:08;;;;;;;6.80;1.17;;;11.40;99.90;;;;;;6250126;22;20004;-65
2022/01/08 02:42:48;;;;;;;6.82;1.15;;;11.40;99.90;;;;;;6276913;22;20057;-65
2022/01/08 02:45:20;;;;;;;5.47;1.67;;;11.30;99.90;;;;;;6276861;22;20011;-65
2022/01/08 02:47:49;;;;;;;10.68;2.15;;;11.30;99.90;;;;;;6276840;22;20373;-65
2022/01/08 02:50:16;;;;;;;6.93;1.80;;;11.40;99.90;;;;;;6277358;22;20390;-65
2022/01/08 02:52:45;;;;;;;6.82;1.92;;;11.40;99.90;;;;;;6277226;22;20008;-65
2022/01/08 02:55:15;;;;;;;6.10;1.88;;;11.40;99.90;;;;;;6276814;22;20008;-65
2022/01/08 02:57:45;;;;;;;5.68;1.45;;;11.40;99.90;;;;;;6276991;22;20078;-65
2022/01/08 03:00:15;;;;;;;2.88;1.42;;;11.40;99.90;;;;;;6276932;22;20000;-65
2022/01/08 03:02:45;;;;;;;9.50;2.17;;;11.30;99.90;;;;;;6276885;22;20014;-65
2022/01/08 03:05:13;;;;;;;5.55;1.90;;;11.30;99.90;;;;;;6277205;22;20014;-65
2022/01/08 03:07:41;;;;;;;10.60;1.55;;;11.20;99.90;;;;;;6249768;22;20011;-65
2022/01/08 03:10:10;;;;;;;5.18;1.67;;;11.20;99.90;;;;;;6276750;22;20003;-65
2022/01/08 03:12:41;;;;;;;4.40;1.60;;;11.20;99.90;;;;;;6250841;22;20027;-65
2022/01/08 03:15:21;;;;;;;5.00;1.38;;;11.20;99.90;;;;;;6277104;22;20079;-65
2022/01/08 03:17:49;;;;;;;8.73;2.42;;;11.30;99.90;;;;;;6277159;22;20039;-65
2022/01/08 03:20:17;;;;;;;19.55;4.00;;;11.30;99.90;;;;;;6277458;22;20007;-65
2022/01/08 03:22:46;;;;;;;7.05;2.65;;;11.40;99.90;;;;;;6276661;22;20050;-65
2022/01/08 03:25:15;;;;;;;6.93;2.42;;;11.20;99.90;;;;;;6276882;22;20004;-65
2022/01/08 03:27:41;;;;;;;12.48;2.08;;;11.00;99.90;;;;;;6276719;22;20000;-65
2022/01/08 03:30:11;;;;;;;4.93;1.92;;;10.90;99.90;;;;;;6277117;22;20003;-65
2022/01/08 03:32:41;;;;;;;5.38;1.73;;;10.90;99.90;;;;;;6276563;22;20012;-65
2022/01/08 03:35:10;;;;;;;6.68;2.08;;;10.90;99.90;;;;;;6276970;22;20007;-65
2022/01/08 03:37:37;;;;;;;4.57;2.25;;;10.90;99.90;;;;;;6276618;22;20003;-65
2022/01/08 03:40:06;;;;;;;7.55;2.20;;;10.80;99.90;;;;;;6276671;22;20004;-65
2022/01/08 03:42:33;;;;;;;5.93;2.50;;;10.80;99.90;;;;;;6276799;22;20377;-65
2022/01/08 03:44:59;;;;;;;7.18;3.10;;;10.90;99.90;;;;;;6277224;22;20008;-65
2022/01/08 03:49:59;;;;;;;10.85;2.78;;;11.00;99.90;;;;;;6276569;22;20034;-65
2022/01/08 03:52:27;;;;;;;7.53;1.93;;;10.80;99.90;;;;;;6276878;22;20054;-65
2022/01/08 03:54:53;;;;;;;12.90;2.35;;;10.80;99.90;;;;;;6276898;22;20007;-65
2022/01/08 03:57:20;;;;;;;7.10;2.08;;;10.80;99.90;;;;;;6276371;22;20000;-66
2022/01/08 03:59:46;;;;;;;8.05;1.83;;;10.80;99.90;;;;;;6277477;22;20015;-66
2022/01/08 04:02:13;;;;;;;3.55;1.95;;;10.80;99.90;;;;;;6278380;22;20010;-66
2022/01/08 04:04:39;;;;;;;2.85;1.70;;;10.80;99.90;;;;;;6278299;22;20014;-66
2022/01/08 04:07:09;;;;;;;7.68;2.13;;;10.70;99.90;;;;;;6278221;22;20429;-66
2022/01/08 04:09:35;;;;;;;7.68;1.95;;;10.70;99.90;;;;;;6251788;22;20008;-66
2022/01/08 04:12:04;;;;;;;2.05;1.23;;;10.70;99.90;;;;;;6251278;22;20357;-66
2022/01/08 04:14:42;;;;;;;2.75;1.58;;;10.70;99.90;;;;;;6278208;22;20012;-66
2022/01/08 04:17:08;;;;;;;2.35;1.52;;;10.70;99.90;;;;;;6278206;22;20014;-66
2022/01/08 04:19:38;;;;;;;3.53;2.03;;;10.80;99.90;;;;;;6278234;22;20007;-65
2022/01/08 04:22:12;;;;;;;4.88;2.03;;;10.90;99.90;;;;;;6278250;22;20465;-67
2022/01/08 04:24:44;;;;;;;3.05;1.90;;;10.70;99.90;;;;;;6278226;22;20008;-66
2022/01/08 04:27:11;;;;;;;3.13;1.50;;;10.80;99.90;;;;;;6278103;22;20004;-65
2022/01/08 04:29:38;;;;;;;4.30;1.52;;;10.70;99.90;;;;;;6278261;22;20007;-65
2022/01/08 04:32:09;;;;;;;5.50;1.85;;;10.60;99.90;;;;;;6278010;22;20497;-65
2022/01/08 04:34:35;;;;;;;5.70;1.67;;;10.60;99.90;;;;;;6278230;22;20015;-65
2022/01/08 04:37:05;;;;;;;4.10;1.70;;;10.70;99.90;;;;;;6278171;22;20003;-65
2022/01/08 04:39:32;;;;;;;6.63;1.55;;;10.70;99.90;;;;;;6278018;22;20489;-66
2022/01/08 04:41:58;;;;;;;6.28;1.77;;;10.80;99.90;;;;;;6277979;22;20004;-65
2022/01/08 04:44:25;;;;;;;3.25;2.10;;;10.60;99.90;;;;;;6250925;22;20370;-66
2022/01/08 04:46:52;;;;;;;4.75;1.75;;;10.70;99.90;;;;;;6277898;22;20015;-65
2022/01/08 04:49:18;;;;;;;7.32;2.17;;;10.60;99.90;;;;;;6250864;22;20396;-65
2022/01/08 04:51:45;;;;;;;2.55;1.42;;;10.50;99.90;;;;;;6277851;22;20014;-65
2022/01/08 04:54:14;;;;;;;5.13;1.25;;;10.60;99.90;;;;;;6277770;22;20061;-65
2022/01/08 04:56:41;;;;;;;1.42;0.80;;;10.60;99.90;;;;;;6277688;22;20058;-65
2022/01/08 04:59:07;;;;;;;4.00;0.95;;;10.50;99.90;;;;;;6277817;22;20004;-65
2022/01/08 05:01:34;;;;;;;2.40;0.55;;;10.50;99.90;;;;;;6277870;22;20022;-66
2022/01/08 05:04:01;;;;;;;3.17;0.63;;;10.50;99.90;;;;;;6278066;22;20321;-65
2022/01/08 05:06:29;;;;;;;1.75;0.77;;;10.50;99.90;;;;;;6278223;22;20007;-65
2022/01/08 05:08:56;;;;;;;2.95;0.77;;;10.60;99.90;;;;;;6277761;22;20049;-66
2022/01/08 05:11:23;;;;;;;1.75;0.70;;;10.60;99.90;;;;;;6277302;22;20071;-65
2022/01/08 05:13:50;;;;;;;3.53;0.73;;;10.50;99.90;;;;;;6277815;22;20398;-64
2022/01/08 05:16:18;;;;;;;4.05;1.40;;;10.50;99.90;;;;;;6277693;22;20007;-65
2022/01/08 05:18:44;;;;;;;1.65;0.80;;;10.50;99.90;;;;;;6277771;22;20008;-65
2022/01/08 05:21:26;;;;;;;2.33;1.05;;;10.50;99.90;;;;;;6277968;22;20004;-66
2022/01/08 05:23:56;;;;;;;1.98;1.33;;;10.50;99.90;;;;;;6277697;22;20334;-63
2022/01/08 05:26:25;;;;;;;1.83;1.23;;;10.50;99.90;;;;;;6277874;22;20008;-63
2022/01/08 05:28:53;;;;;;;4.65;1.58;;;10.50;99.90;;;;;;6277956;22;20455;-64
2022/01/08 05:31:22;;;;;;;3.80;1.98;;;10.50;99.90;;;;;;6277883;22;20413;-63
2022/01/08 05:33:52;;;;;;;3.17;1.35;;;10.60;99.90;;;;;;6277454;22;20011;-63
2022/01/08 05:36:19;;;;;;;3.65;1.75;;;10.60;99.90;;;;;;6277445;22;20003;-63
2022/01/08 05:38:45;;;;;;;1.65;1.13;;;10.50;99.90;;;;;;6277212;22;20417;-63
2022/01/08 05:41:18;;;;;;;3.42;1.13;;;10.60;99.90;;;;;;6277399;22;20015;-63
2022/01/08 05:43:45;;;;;;;4.35;2.05;;;10.50;99.90;;;;;;6277467;22;20007;-63
2022/01/08 05:46:12;;;;;;;4.75;1.50;;;10.60;99.90;;;;;;6244894;23;20339;-63
2022/01/08 05:48:40;;;;;;;2.55;1.73;;;10.50;99.90;;;;;;6246764;22;20008;-63
2022/01/08 05:51:07;;;;;;;3.63;1.77;;;10.50;99.90;;;;;;6246694;22;20011;-63
2022/01/08 05:53:34;;;;;;;4.85;2.20;;;10.60;99.90;;;;;;6246579;22;20055;-63
2022/01/08 05:56:00;;;;;;;6.30;2.80;;;10.60;99.90;;;;;;6247013;22;20007;-63
2022/01/08 05:58:27;;;;;;;4.13;2.20;;;10.60;99.90;;;;;;6246913;23;20012;-63
2022/01/08 06:00:53;;;;;;;4.57;1.83;;;10.50;99.90;;;;;;6247017;23;20008;-63
2022/01/08 06:03:20;;;;;;;4.30;2.20;;;10.40;99.90;;;;;;6246536;23;20090;-63
2022/01/08 06:05:46;;;;;;;5.78;2.20;;;10.40;99.90;;;;;;6246459;23;20007;-63
2022/01/08 06:08:13;;;;;;;5.45;2.50;;;10.40;99.90;;;;;;6246563;22;20012;-63
2022/01/08 06:10:40;;;;;;;3.75;2.13;;;10.50;99.90;;;;;;6246375;22;20004;-63
2022/01/08 06:13:07;;;;;;;4.75;1.88;;;10.50;99.90;;;;;;6246423;22;20020;-63
2022/01/08 06:15:34;;;;;;;4.22;1.95;;;10.50;99.90;;;;;;6246466;23;20001;-63
2022/01/08 06:18:00;;;;;;;5.18;2.03;;;10.50;99.90;;;;;;6246899;22;20005;-63
2022/01/08 06:20:27;;;;;;;8.30;2.35;;;10.40;99.90;;;;;;6244829;23;20008;-63
2022/01/08 06:22:59;;;;;;;5.45;2.08;;;10.30;99.90;;;;;;6246638;22;20325;-63
2022/01/08 06:25:26;;;;;;;6.60;2.08;;;10.30;99.90;;;;;;6246483;22;20018;-64
2022/01/08 06:27:54;;;;;;;3.45;2.63;;;10.30;99.90;;;;;;6246382;23;20449;-64
2022/01/08 06:30:21;;;;;;;6.10;2.08;;;10.30;99.90;;;;;;6219637;23;20018;-64
2022/01/08 06:32:48;;;;;;;3.00;1.77;;;10.30;99.90;;;;;;6246098;22;20016;-64
2022/01/08 06:35:18;;;;;;;7.03;2.92;;;10.30;99.90;;;;;;6246292;23;20388;-64
2022/01/08 06:37:44;;;;;;;5.97;2.13;;;10.30;99.90;;;;;;6246339;23;20003;-64
2022/01/08 06:40:12;;;;;;;6.50;2.17;;;10.30;99.90;;;;;;6246362;23;20075;-64
2022/01/08 06:42:45;;;;;;;4.50;1.95;;;10.20;99.90;;;;;;6244627;23;20008;-64
2022/01/08 06:45:11;;;;;;;4.40;1.98;;;10.20;99.90;;;;;;6254005;22;20016;-65
